Time;durP1;ratioP1;P1;durP2;ratioP2;P2;SDS_P1;SDS_P2;PMS_P1;PMS_P2;Temp;Humidity;BMP_temperature;BMP_pressure;BME280_temperature;BME280_humidity;BME280_pressure;Samples;Min_cycle;Max_cycle;Signal;HPM_P1;HPM_P2
2023/04/05 00:01:27;;;;;;;10.60;7.30;;;;;;;1.38;100.00;102303.25;4975559;28;20035;-73
2023/04/05 00:03:54;;;;;;;9.67;7.63;;;;;;;1.33;100.00;102309.59;4974371;28;20022;-73
2023/04/05 00:06:27;;;;;;;9.87;7.37;;;;;;;1.30;100.00;102309.28;4972029;28;20031;-72
2023/04/05 00:09:00;;;;;;;11.13;7.63;;;;;;;1.30;100.00;102310.19;4985776;28;20285;-72
2023/04/05 00:11:32;;;;;;;9.33;7.43;;;;;;;1.33;100.00;102314.72;4977744;28;20022;-72
2023/04/05 00:14:01;;;;;;;9.60;7.63;;;;;;;1.25;100.00;102315.63;4977841;28;20050;-71
2023/04/05 00:16:28;;;;;;;11.03;8.07;;;;;;;1.11;100.00;102305.03;4982507;28;20031;-72
2023/04/05 00:18:59;;;;;;;9.80;7.87;;;;;;;1.04;100.00;102312.84;4974817;28;20439;-72
2023/04/05 00:21:24;;;;;;;12.32;8.07;;;;;;;0.97;100.00;102307.91;4976829;28;20278;-71
2023/04/05 00:23:56;;;;;;;10.13;7.97;;;;;;;0.94;100.00;102313.63;4986346;28;20438;-71
2023/04/05 00:26:21;;;;;;;10.48;8.00;;;;;;;0.90;100.00;102306.44;4979520;28;20080;-72
2023/04/05 00:28:47;;;;;;;10.90;8.20;;;;;;;0.91;100.00;102309.16;4978007;28;20031;-71
2023/04/05 00:31:13;;;;;;;9.73;7.87;;;;;;;0.91;100.00;102303.13;4986993;28;20026;-72
2023/04/05 00:33:39;;;;;;;10.30;7.90;;;;;;;0.86;100.00;102300.16;4987521;28;20040;-72
2023/04/05 00:36:11;;;;;;;9.47;7.90;;;;;;;0.87;100.00;102295.91;4987516;28;20026;-72
2023/04/05 00:38:37;;;;;;;8.27;7.07;;;;;;;0.81;100.00;102294.59;4982087;28;20029;-72
2023/04/05 00:41:02;;;;;;;11.43;8.80;;;;;;;0.75;100.00;102293.09;4983863;28;20030;-71
2023/04/05 00:43:28;;;;;;;9.90;7.80;;;;;;;0.69;100.00;102293.41;4981577;28;20112;-71
2023/04/05 00:45:53;;;;;;;11.23;8.97;;;;;;;0.69;100.00;102285.75;4981140;28;20031;-72
2023/04/05 00:48:19;;;;;;;12.33;8.33;;;;;;;0.67;100.00;102293.28;4981198;28;20717;-72
2023/04/05 00:50:48;;;;;;;11.57;8.03;;;;;;;0.65;100.00;102289.66;4960867;28;20548;-71
2023/04/05 00:53:15;;;;;;;11.77;8.43;;;;;;;0.61;100.00;102281.59;4975878;28;20026;-72
2023/04/05 00:55:40;;;;;;;13.03;9.00;;;;;;;0.58;100.00;102283.09;4969099;28;20086;-71
2023/04/05 00:58:08;;;;;;;12.47;8.53;;;;;;;0.55;100.00;102281.91;4974265;28;20509;-72
2023/04/05 01:00:37;;;;;;;9.53;7.77;;;;;;;0.54;100.00;102285.22;4977633;28;20061;-72
2023/04/05 01:03:05;;;;;;;11.57;7.97;;;;;;;0.50;100.00;102294.22;4987930;28;20391;-72
2023/04/05 01:05:54;;;;;;;11.23;8.93;;;;;;;0.50;100.00;102285.66;4977741;28;20035;-71
2023/04/05 01:08:36;;;;;;;9.47;7.37;;;;;;;0.47;100.00;102288.78;4973188;28;20498;-72
2023/04/05 01:11:04;;;;;;;11.10;8.87;;;;;;;0.38;100.00;102288.81;4969061;28;20034;-71
2023/04/05 01:13:30;;;;;;;12.13;8.60;;;;;;;0.31;100.00;102287.31;4976975;28;20074;-72
2023/04/05 01:15:55;;;;;;;11.27;8.10;;;;;;;0.27;100.00;102290.31;4981769;28;20504;-71
2023/04/05 01:18:23;;;;;;;9.63;7.90;;;;;;;0.19;100.00;102291.22;4980675;28;20031;-71
2023/04/05 01:21:17;;;;;;;12.27;8.30;;;;;;;0.16;100.00;102294.41;4978782;28;20081;-72
2023/04/05 01:24:00;;;;;;;9.70;8.33;;;;;;;0.14;100.00;102288.25;4980903;28;20078;-71
2023/04/05 01:26:53;;;;;;;10.60;7.73;;;;;;;0.10;100.00;102273.38;4955448;28;20033;-71
2023/04/05 01:29:37;;;;;;;12.63;9.07;;;;;;;0.05;100.00;102274.59;4957676;28;20447;-71
2023/04/05 01:32:17;;;;;;;13.70;8.17;;;;;;;-0.02;100.00;102268.88;4957942;28;20263;-71
2023/04/05 01:34:47;;;;;;;12.60;8.63;;;;;;;-0.06;100.00;102276.06;4952878;28;20031;-72
2023/04/05 01:37:17;;;;;;;9.27;7.30;;;;;;;-0.08;100.00;102269.94;4958155;28;20030;-71
2023/04/05 01:39:46;;;;;;;9.57;8.57;;;;;;;-0.14;100.00;102270.22;4955027;28;20027;-71
2023/04/05 01:42:11;;;;;;;10.03;7.40;;;;;;;-0.16;100.00;102264.06;4964601;28;20379;-71
2023/04/05 01:44:37;;;;;;;11.57;8.23;;;;;;;-0.18;100.00;102263.03;4956866;28;20035;-71
2023/04/05 01:47:02;;;;;;;8.67;7.30;;;;;;;-0.21;100.00;102265.25;4961490;28;20019;-71
2023/04/05 01:49:27;;;;;;;11.77;7.77;;;;;;;-0.23;100.00;102259.13;4972289;28;20019;-71
2023/04/05 01:51:53;;;;;;;11.30;8.57;;;;;;;-0.24;100.00;102263.31;4973084;28;20033;-71
2023/04/05 01:54:18;;;;;;;8.73;7.40;;;;;;;-0.24;100.00;102258.22;4965946;28;20435;-71
2023/04/05 01:56:43;;;;;;;8.70;7.70;;;;;;;-0.25;100.00;102252.22;4952594;28;20033;-71
2023/04/05 01:59:08;;;;;;;8.90;7.20;;;;;;;-0.29;100.00;102250.09;4960981;28;20022;-71
2023/04/05 02:01:34;;;;;;;11.87;7.20;;;;;;;-0.32;100.00;102254.91;4961853;28;20027;-71
2023/04/05 02:03:59;;;;;;;10.37;7.50;;;;;;;-0.33;100.00;102257.31;4957606;28;20019;-71
2023/04/05 02:06:25;;;;;;;10.17;7.83;;;;;;;-0.36;100.00;102257.91;4955983;28;20023;-71
2023/04/05 02:08:50;;;;;;;10.73;7.77;;;;;;;-0.37;100.00;102254.47;4965330;28;20047;-71
2023/04/05 02:11:16;;;;;;;9.17;8.23;;;;;;;-0.36;100.00;102255.38;4956610;28;20424;-71
2023/04/05 02:13:41;;;;;;;9.73;8.00;;;;;;;-0.35;100.00;102248.59;4981453;28;20409;-71
2023/04/05 02:16:06;;;;;;;9.40;7.33;;;;;;;-0.39;100.00;102250.84;4959034;28;20035;-71
2023/04/05 02:18:31;;;;;;;10.73;7.80;;;;;;;-0.43;100.00;102247.88;4965775;28;20027;-71
2023/04/05 02:21:04;;;;;;;10.40;8.60;;;;;;;-0.48;100.00;102242.28;4958655;28;20025;-71
2023/04/05 02:23:31;;;;;;;9.40;7.47;;;;;;;-0.50;100.00;102242.16;4982920;28;20514;-71
2023/04/05 02:25:57;;;;;;;8.27;7.17;;;;;;;-0.52;100.00;102243.63;4973204;28;20523;-71
2023/04/05 02:28:22;;;;;;;11.77;8.33;;;;;;;-0.58;100.00;102237.94;4962831;28;20046;-70
2023/04/05 02:30:48;;;;;;;11.20;8.03;;;;;;;-0.57;100.00;102237.19;4961575;28;20118;-71
2023/04/05 02:33:13;;;;;;;11.33;7.87;;;;;;;-0.58;100.00;102239.59;4959841;28;20034;-71
2023/04/05 02:35:38;;;;;;;12.00;8.27;;;;;;;-0.62;100.00;102230.72;4961689;28;20176;-71
2023/04/05 02:38:04;;;;;;;13.53;8.67;;;;;;;-0.65;100.00;102236.41;4960520;28;20194;-70
2023/04/05 02:40:30;;;;;;;10.63;8.27;;;;;;;-0.67;100.00;102242.13;4961063;28;20491;-71
2023/04/05 02:42:55;;;;;;;10.13;7.80;;;;;;;-0.64;100.00;102244.97;4959756;28;20020;-71
2023/04/05 02:45:21;;;;;;;11.63;8.30;;;;;;;-0.64;100.00;102240.78;4953791;28;20031;-71
2023/04/05 02:47:46;;;;;;;9.87;8.70;;;;;;;-0.64;100.00;102230.59;4976976;28;20022;-71
2023/04/05 02:50:11;;;;;;;10.13;8.03;;;;;;;-0.63;100.00;102236.59;4962209;28;20487;-70
2023/04/05 02:52:37;;;;;;;8.80;7.90;;;;;;;-0.64;100.00;102230.59;4988464;28;20035;-71
2023/04/05 02:55:05;;;;;;;10.77;7.73;;;;;;;-0.64;100.00;102240.78;4971252;28;20026;-71
2023/04/05 02:57:31;;;;;;;10.27;8.23;;;;;;;-0.64;100.00;102229.69;4951069;28;20521;-71
2023/04/05 02:59:56;;;;;;;10.13;7.90;;;;;;;-0.69;100.00;102228.31;4954958;28;20525;-71
2023/04/05 03:02:21;;;;;;;10.63;8.10;;;;;;;-0.71;100.00;102228.16;4963164;28;20027;-71
2023/04/05 03:04:47;;;;;;;9.13;7.57;;;;;;;-0.75;100.00;102226.97;4966315;28;20058;-71
2023/04/05 03:07:17;;;;;;;12.07;8.27;;;;;;;-0.77;100.00;102222.44;4971032;28;20011;-71
2023/04/05 03:09:43;;;;;;;10.00;8.00;;;;;;;-0.80;100.00;102220.50;4983200;28;20018;-71
2023/04/05 03:12:08;;;;;;;9.60;8.30;;;;;;;-0.81;100.00;102216.16;4969141;28;20026;-71
2023/04/05 03:14:34;;;;;;;12.53;8.43;;;;;;;-0.84;100.00;102213.28;4980366;28;20050;-70
2023/04/05 03:17:00;;;;;;;10.27;8.13;;;;;;;-0.86;100.00;102212.25;4952938;28;20050;-71
2023/04/05 03:19:26;;;;;;;8.97;7.57;;;;;;;-0.88;100.00;102208.66;4956606;28;20023;-71
2023/04/05 03:21:52;;;;;;;10.47;8.70;;;;;;;-0.87;100.00;102205.38;4965981;28;20019;-71
2023/04/05 03:24:17;;;;;;;10.67;8.47;;;;;;;-0.89;100.00;102205.22;4953030;28;20440;-71
2023/04/05 03:26:45;;;;;;;10.73;7.93;;;;;;;-0.88;100.00;102206.13;4954381;28;20047;-71
2023/04/05 03:29:10;;;;;;;8.80;7.90;;;;;;;-0.91;100.00;102199.06;4957233;28;20027;-70
2023/04/05 03:31:35;;;;;;;9.57;7.90;;;;;;;-0.94;100.00;102202.94;4956490;28;20030;-70
2023/04/05 03:34:00;;;;;;;10.67;7.40;;;;;;;-0.98;100.00;102202.66;4953554;28;20524;-71
2023/04/05 03:36:29;;;;;;;9.50;7.97;;;;;;;-0.98;100.00;102202.66;4956276;28;20129;-71
2023/04/05 03:38:55;;;;;;;12.10;8.03;;;;;;;-0.99;100.00;102205.91;4966663;28;20065;-71
2023/04/05 03:41:20;;;;;;;10.00;8.10;;;;;;;-1.00;100.00;102209.22;4984236;28;20452;-71
2023/04/05 03:43:45;;;;;;;11.80;8.33;;;;;;;-0.99;100.00;102195.72;4977204;28;20109;-70
2023/04/05 03:46:11;;;;;;;10.73;8.03;;;;;;;-0.97;100.00;102203.53;4960781;28;20118;-70
2023/04/05 03:48:36;;;;;;;10.03;7.50;;;;;;;-0.98;100.00;102201.72;4986680;28;20036;-71
2023/04/05 03:51:01;;;;;;;9.57;8.17;;;;;;;-0.99;100.00;102200.81;4983621;28;20092;-71
2023/04/05 03:53:28;;;;;;;10.53;8.10;;;;;;;-1.00;100.00;102188.84;4984837;28;20109;-71
2023/04/05 03:55:54;;;;;;;12.17;8.73;;;;;;;-1.02;100.00;102195.44;4986257;28;20046;-70
2023/04/05 03:58:20;;;;;;;10.07;7.77;;;;;;;-1.07;100.00;102188.06;4981821;28;20109;-71
2023/04/05 04:00:46;;;;;;;10.80;8.33;;;;;;;-1.09;100.00;102193.91;4973159;28;20118;-71
2023/04/05 04:03:12;;;;;;;12.40;8.43;;;;;;;-1.14;100.00;102190.00;4958725;28;20052;-71
2023/04/05 04:05:38;;;;;;;10.67;8.10;;;;;;;-1.16;100.00;102190.59;4961524;28;20500;-71
2023/04/05 04:08:06;;;;;;;11.23;8.47;;;;;;;-1.23;100.00;102189.97;4955625;28;20035;-70
2023/04/05 04:10:33;;;;;;;10.57;8.63;;;;;;;-1.23;100.00;102189.97;4964715;28;20034;-71
2023/04/05 04:12:58;;;;;;;10.73;8.50;;;;;;;-1.24;100.00;102183.06;4975037;28;20080;-70
2023/04/05 04:15:23;;;;;;;9.90;7.80;;;;;;;-1.23;100.00;102184.91;4965096;28;20051;-70
2023/04/05 04:17:49;;;;;;;10.03;8.47;;;;;;;-1.19;100.00;102177.56;4962594;28;20022;-70
2023/04/05 04:20:14;;;;;;;9.33;7.70;;;;;;;-1.18;100.00;102186.97;4964339;28;20024;-71
2023/04/05 04:22:39;;;;;;;9.40;7.83;;;;;;;-1.18;100.00;102177.72;4973116;28;20026;-71
2023/04/05 04:25:09;;;;;;;10.80;8.27;;;;;;;-1.18;100.00;102181.91;4962176;28;20027;-70
2023/04/05 04:27:40;;;;;;;9.30;7.23;;;;;;;-1.23;100.00;102177.25;4955620;28;20045;-70
2023/04/05 04:30:09;;;;;;;;;;;;;;;-1.26;100.00;102179.47;4959493;28;20887;-71
2023/04/05 04:35:27;;;;;;;10.73;7.93;;;;;;;-1.31;100.00;102184.84;4952208;28;20578;-70
2023/04/05 04:38:00;;;;;;;11.67;9.00;;;;;;;-1.35;100.00;102184.53;4964527;28;20039;-71
2023/04/05 04:40:37;;;;;;;10.77;8.50;;;;;;;-1.34;100.00;102180.34;4950782;28;20035;-70
2023/04/05 04:43:18;;;;;;;9.87;7.63;;;;;;;-1.38;100.00;102180.75;4964093;28;20097;-71
2023/04/05 04:45:48;;;;;;;11.57;7.55;;;;;;;-1.39;100.00;102177.34;4954186;28;20023;-72
2023/04/05 04:48:15;;;;;;;10.77;8.07;;;;;;;-1.40;100.00;102185.69;4960243;28;20050;-71
2023/04/05 04:50:42;;;;;;;9.37;7.73;;;;;;;-1.40;100.00;102179.72;4967554;28;20089;-70
2023/04/05 04:53:07;;;;;;;12.43;8.77;;;;;;;-1.40;100.00;102187.38;4967111;28;20054;-71
2023/04/05 04:55:35;;;;;;;9.17;7.47;;;;;;;-1.40;100.00;102179.72;4964757;28;20023;-71
2023/04/05 04:58:08;;;;;;;9.83;8.70;;;;;;;-1.42;100.00;102186.31;4970779;28;20048;-71
2023/04/05 05:00:33;;;;;;;10.23;7.93;;;;;;;-1.42;100.00;102181.22;4964061;28;20030;-71
2023/04/05 05:02:58;;;;;;;11.73;8.57;;;;;;;-1.40;100.00;102187.38;4959484;28;20471;-71
2023/04/05 05:05:25;;;;;;;10.70;8.53;;;;;;;-1.41;100.00;102183.00;4962479;28;20023;-71
2023/04/05 05:07:51;;;;;;;11.77;8.93;;;;;;;-1.41;100.00;102178.81;4982162;28;20436;-71
2023/04/05 05:10:17;;;;;;;13.80;8.10;;;;;;;-1.40;100.00;102182.28;4990784;28;20341;-71
2023/04/05 05:12:43;;;;;;;11.20;8.77;;;;;;;-1.39;100.00;102181.53;4978108;28;20361;-72
2023/04/05 05:15:09;;;;;;;10.23;8.03;;;;;;;-1.39;100.00;102178.97;4978253;28;20046;-72
2023/04/05 05:17:34;;;;;;;9.63;8.17;;;;;;;-1.41;100.00;102183.00;4979967;28;20034;-72
2023/04/05 05:20:00;;;;;;;11.30;7.93;;;;;;;-1.41;100.00;102177.91;4981623;28;20038;-72
2023/04/05 05:22:27;;;;;;;13.67;8.80;;;;;;;-1.42;100.00;102181.22;4970170;28;20405;-72
2023/04/05 05:24:53;;;;;;;9.47;8.37;;;;;;;-1.41;100.00;102177.91;4973594;28;20574;-72
2023/04/05 05:27:18;;;;;;;11.93;8.27;;;;;;;-1.39;100.00;102171.34;4960582;28;20031;-72
2023/04/05 05:29:43;;;;;;;13.23;8.67;;;;;;;-1.37;100.00;102174.94;4959704;28;20041;-72
2023/04/05 05:32:13;;;;;;;12.60;9.40;;;;;;;-1.37;100.00;102170.75;4980391;28;20027;-72
2023/04/05 05:34:39;;;;;;;10.40;8.17;;;;;;;-1.34;100.00;102175.25;4968888;28;20461;-72
2023/04/05 05:37:05;;;;;;;10.40;7.87;;;;;;;-1.31;100.00;102174.69;4971777;28;20338;-72
2023/04/05 05:39:30;;;;;;;10.03;8.17;;;;;;;-1.30;100.00;102172.28;4975107;28;20030;-73
2023/04/05 05:41:56;;;;;;;10.83;8.20;;;;;;;-1.27;100.00;102172.59;4968259;28;20030;-72
2023/04/05 05:44:21;;;;;;;12.03;8.37;;;;;;;-1.26;100.00;102158.25;4977666;28;20034;-73
2023/04/05 05:46:46;;;;;;;11.50;7.60;;;;;;;-1.19;100.00;102167.38;4968102;28;20066;-73
2023/04/05 05:49:12;;;;;;;12.30;8.77;;;;;;;-1.14;100.00;102168.75;4958254;28;20027;-72
2023/04/05 05:51:37;;;;;;;12.80;8.10;;;;;;;-1.08;100.00;102174.47;4952104;28;20027;-73
2023/04/05 05:54:02;;;;;;;12.00;8.10;;;;;;;-1.01;100.00;102176.84;4954448;28;20031;-72
2023/04/05 05:56:28;;;;;;;11.87;8.20;;;;;;;-0.94;100.00;102174.94;4954263;28;20027;-73
2023/04/05 05:58:53;;;;;;;11.67;8.00;;;;;;;-0.90;100.00;102174.50;4953035;28;20470;-72
2023/04/05 06:01:21;;;;;;;10.90;8.70;;;;;;;-0.81;100.00;102187.25;4952803;28;20027;-71
2023/04/05 06:03:47;;;;;;;13.00;8.70;;;;;;;-0.75;100.00;102183.69;4953797;28;20165;-73
2023/04/05 06:06:12;;;;;;;12.93;9.27;;;;;;;-0.69;100.00;102174.84;4966914;28;20035;-74
2023/04/05 06:08:38;;;;;;;13.10;8.67;;;;;;;-0.61;100.00;102179.03;4959349;28;20031;-73
2023/04/05 06:11:03;;;;;;;13.27;8.97;;;;;;;-0.54;100.00;102178.03;4955513;28;20526;-72
2023/04/05 06:13:29;;;;;;;12.30;9.70;;;;;;;-0.45;100.00;102180.56;4959754;28;20522;-72
2023/04/05 06:15:54;;;;;;;11.47;8.90;;;;;;;-0.36;100.00;102184.03;4959236;28;20031;-73
2023/04/05 06:18:20;;;;;;;13.40;9.07;;;;;;;-0.27;100.00;102184.91;4982386;28;20030;-72
2023/04/05 06:20:46;;;;;;;10.47;8.50;;;;;;;-0.14;100.00;102184.47;4956253;28;20427;-74
2023/04/05 06:23:12;;;;;;;13.23;8.93;;;;;;;0.02;100.00;102191.03;4976125;28;20030;-74
2023/04/05 06:25:37;;;;;;;10.80;9.10;;;;;;;0.14;100.00;102190.44;4979450;28;20239;-72
2023/04/05 06:28:03;;;;;;;11.57;9.03;;;;;;;0.26;100.00;102191.63;4952047;28;20027;-74
2023/04/05 06:30:29;;;;;;;12.07;10.73;;;;;;;0.38;100.00;102186.78;4969088;28;20018;-73
2023/04/05 06:32:54;;;;;;;13.67;10.77;;;;;;;0.54;100.00;102185.72;4960440;28;20038;-74
2023/04/05 06:35:21;;;;;;;14.83;11.23;;;;;;;0.73;100.00;102189.97;4964475;28;20034;-73
2023/04/05 06:37:46;;;;;;;11.70;10.50;;;;;;;0.95;100.00;102190.34;4962895;28;20034;-73
2023/04/05 06:40:12;;;;;;;13.83;10.87;;;;;;;1.21;100.00;102186.72;4959720;28;20361;-73
2023/04/05 06:42:37;;;;;;;11.13;9.60;;;;;;;1.52;100.00;102178.41;4972102;28;20030;-73
2023/04/05 06:45:03;;;;;;;11.43;9.13;;;;;;;1.82;100.00;102184.47;4963663;28;20447;-73
2023/04/05 06:47:32;;;;;;;11.87;9.47;;;;;;;2.15;100.00;102174.56;4975096;28;20483;-72
2023/04/05 06:49:58;;;;;;;10.70;9.10;;;;;;;2.44;100.00;102182.97;4966018;28;20054;-72
2023/04/05 06:52:23;;;;;;;11.90;9.00;;;;;;;2.72;100.00;102190.47;4973907;28;20022;-72
2023/04/05 06:54:48;;;;;;;12.20;10.30;;;;;;;3.01;100.00;102186.94;4960492;28;20133;-72
2023/04/05 06:57:13;;;;;;;13.83;9.63;;;;;;;3.33;99.43;102187.84;4961514;28;20065;-74
2023/04/05 06:59:39;;;;;;;10.50;9.40;;;;;;;3.60;96.17;102189.25;4971360;28;20475;-74
2023/04/05 07:02:04;;;;;;;9.77;8.73;;;;;;;3.96;94.14;102191.22;4973172;28;20023;-74
2023/04/05 07:04:35;;;;;;;12.70;9.37;;;;;;;4.37;91.98;102194.44;4959389;28;20387;-74
2023/04/05 07:07:01;;;;;;;13.82;9.10;;;;;;;4.77;90.66;102189.84;4974545;28;20558;-74
2023/04/05 07:09:29;;;;;;;12.38;9.10;;;;;;;5.12;88.48;102192.44;4966154;28;20055;-73
2023/04/05 07:11:56;;;;;;;10.02;9.02;;;;;;;5.45;87.15;102195.75;4965417;28;20022;-75
2023/04/05 07:14:21;;;;;;;10.65;8.85;;;;;;;5.68;82.66;102194.00;4956432;28;20061;-73
2023/04/05 07:16:47;;;;;;;11.35;9.43;;;;;;;6.01;81.37;102191.19;4965859;28;20518;-73
2023/04/05 07:19:12;;;;;;;9.38;8.38;;;;;;;6.34;80.88;102188.41;4969841;28;20019;-75
2023/04/05 07:21:37;;;;;;;11.60;8.85;;;;;;;6.70;77.73;102193.47;4961154;28;20348;-74
2023/04/05 07:24:03;;;;;;;10.02;8.85;;;;;;;6.98;73.94;102190.19;4972280;28;20023;-75
2023/04/05 07:26:29;;;;;;;10.55;8.25;;;;;;;7.34;74.41;102192.59;4978377;28;20085;-75
2023/04/05 07:28:54;;;;;;;9.35;8.40;;;;;;;7.75;71.54;102195.25;4986339;28;20019;-74
2023/04/05 07:31:19;;;;;;;10.70;8.52;;;;;;;7.99;67.94;102189.88;4979390;28;20023;-75
2023/04/05 07:33:45;;;;;;;10.55;8.18;;;;;;;8.41;68.75;102196.00;4964652;28;20081;-75
2023/04/05 07:36:10;;;;;;;10.35;8.30;;;;;;;8.63;65.28;102193.91;4977542;28;20121;-74
2023/04/05 07:38:35;;;;;;;10.10;8.43;;;;;;;8.94;65.23;102190.56;4982962;28;20026;-75
2023/04/05 07:41:00;;;;;;;10.18;7.80;;;;;;;9.12;63.02;102193.38;4977963;28;20026;-74
2023/04/05 07:43:26;;;;;;;10.32;8.27;;;;;;;9.39;62.54;102181.13;4979026;28;20041;-75
2023/04/05 07:45:55;;;;;;;10.48;8.50;;;;;;;9.53;61.45;102185.41;4983525;28;20040;-76
2023/04/05 07:48:20;;;;;;;9.10;8.18;;;;;;;9.68;60.39;102189.66;4965804;28;20072;-75
2023/04/05 07:50:46;;;;;;;9.43;8.25;;;;;;;9.85;60.10;102182.84;4962102;28;20535;-75
2023/04/05 07:53:12;;;;;;;10.68;8.30;;;;;;;10.05;58.67;102181.41;4961087;28;20022;-76
2023/04/05 07:55:38;;;;;;;10.40;8.57;;;;;;;10.11;58.96;102185.13;4962117;28;20023;-75
2023/04/05 07:58:03;;;;;;;10.82;8.45;;;;;;;10.27;58.99;102181.69;4953731;28;20034;-74
2023/04/05 08:00:28;;;;;;;9.88;8.02;;;;;;;10.48;57.78;102181.09;4964798;28;20066;-74
2023/04/05 08:02:53;;;;;;;12.88;7.95;;;;;;;10.67;56.45;102182.97;4950581;28;20654;-76
2023/04/05 08:05:19;;;;;;;10.27;7.47;;;;;;;10.92;55.93;102179.97;4962757;28;20027;-74
2023/04/05 08:07:44;;;;;;;9.75;7.07;;;;;;;11.07;52.75;102178.06;4973746;28;20352;-75
2023/04/05 08:10:10;;;;;;;10.88;7.40;;;;;;;11.33;52.21;102175.94;4981765;28;20474;-75
2023/04/05 08:12:35;;;;;;;9.65;7.72;;;;;;;11.20;51.40;102179.59;4975713;28;20030;-75
2023/04/05 08:15:00;;;;;;;10.05;7.35;;;;;;;11.32;50.39;102188.00;4968513;28;20440;-75
2023/04/05 08:17:26;;;;;;;11.48;7.55;;;;;;;11.28;50.52;102183.47;4975206;28;20034;-75
2023/04/05 08:19:52;;;;;;;9.90;7.55;;;;;;;11.24;46.81;102178.94;4967760;28;20404;-75
2023/04/05 08:22:18;;;;;;;9.18;7.78;;;;;;;11.19;48.79;102189.06;4978496;28;20074;-74
2023/04/05 08:24:44;;;;;;;10.52;8.10;;;;;;;11.31;48.65;102181.03;4967149;28;20419;-75
2023/04/05 08:27:10;;;;;;;10.45;7.25;;;;;;;11.44;50.15;102184.25;4970171;28;20027;-74
2023/04/05 08:29:35;;;;;;;9.93;7.78;;;;;;;11.43;47.58;102183.34;4970820;28;20615;-74
2023/04/05 08:32:01;;;;;;;9.88;7.60;;;;;;;11.03;47.84;102188.31;4970900;28;20026;-77
2023/04/05 08:34:26;;;;;;;10.00;7.65;;;;;;;11.09;49.63;102184.25;4976175;28;20546;-76
2023/04/05 08:36:51;;;;;;;9.73;7.40;;;;;;;11.40;50.08;102175.44;4972476;28;20400;-76
2023/04/05 08:39:17;;;;;;;9.60;8.15;;;;;;;11.52;48.55;102173.44;4965384;28;20148;-76
2023/04/05 08:41:53;;;;;;;13.52;8.32;;;;;;;11.62;50.47;102176.50;4967974;28;20344;-77
2023/04/05 08:44:21;;;;;;;9.10;7.75;;;;;;;11.79;48.51;102173.81;4965928;28;20384;-77
2023/04/05 08:46:49;;;;;;;9.23;7.68;;;;;;;11.98;48.80;102179.06;4983246;28;20024;-77
2023/04/05 08:49:15;;;;;;;11.52;7.47;;;;;;;12.14;49.93;102179.84;4970562;28;20487;-76
2023/04/05 08:51:40;;;;;;;10.38;7.45;;;;;;;12.22;47.20;102168.09;4973430;28;20049;-77
2023/04/05 08:54:05;;;;;;;10.63;8.38;;;;;;;12.14;46.23;102172.06;4968678;28;20019;-77
2023/04/05 08:56:33;;;;;;;9.77;8.13;;;;;;;11.88;48.62;102172.56;4979363;28;20161;-77
2023/04/05 08:59:06;;;;;;;10.70;8.27;;;;;;;11.74;47.32;102179.69;4963783;28;20031;-74
2023/04/05 09:01:35;;;;;;;11.00;8.10;;;;;;;11.75;48.55;102176.25;4982807;28;20030;-76
2023/04/05 09:04:12;;;;;;;10.35;7.28;;;;;;;11.63;48.47;102175.66;4966768;28;20030;-75
2023/04/05 09:06:38;;;;;;;10.02;7.63;;;;;;;11.84;47.50;102164.53;4983885;28;20050;-74
2023/04/05 09:09:07;;;;;;;7.70;6.90;;;;;;;11.96;47.54;102170.31;4983323;28;20018;-74
2023/04/05 09:11:36;;;;;;;8.50;7.60;;;;;;;11.97;46.58;102166.91;4985245;28;20077;-74
2023/04/05 09:14:03;;;;;;;8.82;7.28;;;;;;;12.03;45.72;102165.41;4984743;28;20038;-74
2023/04/05 09:16:30;;;;;;;9.60;7.30;;;;;;;12.09;45.64;102171.81;4987743;28;20149;-74
2023/04/05 09:18:55;;;;;;;8.77;7.63;;;;;;;11.88;46.04;102163.88;4987503;28;20446;-77
2023/04/05 09:21:22;;;;;;;10.02;7.78;;;;;;;12.00;47.12;102163.56;4986553;28;20058;-78
2023/04/05 09:23:52;;;;;;;9.82;7.40;;;;;;;12.11;48.33;102166.69;4981985;28;20105;-77
2023/04/05 09:26:20;;;;;;;8.30;7.18;;;;;;;12.22;47.47;102156.78;4975520;28;20105;-77
2023/04/05 09:28:46;;;;;;;10.30;8.15;;;;;;;12.45;47.43;102156.94;4963199;28;20073;-75
2023/04/05 09:31:34;;;;;;;9.40;7.30;;;;;;;12.42;43.23;102152.53;4954378;28;20031;-77
2023/04/05 09:34:04;;;;;;;9.35;6.95;;;;;;;12.55;43.88;102155.69;4952815;28;20076;-75
2023/04/05 09:36:32;;;;;;;9.45;7.20;;;;;;;12.55;41.97;102155.69;4954800;28;20035;-74
2023/04/05 09:39:05;;;;;;;8.23;7.43;;;;;;;12.51;40.69;102156.34;4955517;28;20391;-75
2023/04/05 09:41:31;;;;;;;7.85;7.05;;;;;;;12.49;41.06;102149.38;4970483;28;20372;-73
2023/04/05 09:43:56;;;;;;;9.95;7.68;;;;;;;12.52;40.84;102156.41;4962361;28;20041;-74
2023/04/05 09:46:38;;;;;;;8.43;7.07;;;;;;;12.53;42.49;102153.00;4963519;28;20030;-74
2023/04/05 09:49:05;;;;;;;;;;;;;;;12.47;41.64;102155.31;4966001;28;20101;-74
2023/04/05 09:51:35;;;;;;;8.90;7.32;;;;;;;12.41;41.75;102150.72;4964259;28;19964;-74
2023/04/05 09:54:08;;;;;;;7.85;7.05;;;;;;;12.47;41.94;102150.13;4967077;28;20441;-75
2023/04/05 09:56:39;;;;;;;8.43;6.78;;;;;;;12.45;41.48;102144.84;4965407;28;20465;-74
2023/04/05 09:59:08;;;;;;;7.88;6.50;;;;;;;12.48;43.63;102138.91;4960790;28;20039;-75
2023/04/05 10:01:33;;;;;;;7.47;6.55;;;;;;;12.46;42.97;102146.66;4961917;28;20015;-74
2023/04/05 10:03:59;;;;;;;8.40;7.50;;;;;;;12.29;41.20;102138.06;4971033;28;20534;-74
2023/04/05 10:06:54;;;;;;;7.55;6.57;;;;;;;12.39;42.06;102128.09;4962251;28;20250;-74
2023/04/05 10:09:20;;;;;;;8.20;6.53;;;;;;;12.41;42.20;102126.47;4959660;28;20479;-74
2023/04/05 10:11:45;;;;;;;8.27;7.22;;;;;;;12.47;42.11;102132.81;4960859;28;20078;-74
2023/04/05 10:14:10;;;;;;;7.50;6.22;;;;;;;12.50;42.07;102126.88;4966317;28;20157;-74
2023/04/05 10:16:43;;;;;;;7.97;5.70;;;;;;;12.52;42.01;102122.63;4970340;28;20035;-74
2023/04/05 10:19:16;;;;;;;8.68;6.40;;;;;;;12.53;41.47;102126.13;4964864;28;20400;-74
2023/04/05 10:21:43;;;;;;;7.10;5.65;;;;;;;12.51;42.32;102117.34;4960729;28;20106;-74
2023/04/05 10:24:27;;;;;;;7.78;6.40;;;;;;;12.49;42.03;102123.38;4973707;28;20026;-74
2023/04/05 10:27:30;;;;;;;9.90;6.82;;;;;;;12.29;39.11;102124.19;4963908;28;20506;-74
2023/04/05 10:30:03;;;;;;;6.82;6.10;;;;;;;12.14;39.89;102112.28;4955940;28;20050;-74
2023/04/05 10:32:50;;;;;;;8.50;6.70;;;;;;;12.25;41.79;102111.06;4967601;28;20500;-74
2023/04/05 10:35:23;;;;;;;7.25;6.50;;;;;;;12.38;42.20;102116.81;4957684;28;20028;-76
2023/04/05 10:37:57;;;;;;;7.78;6.53;;;;;;;12.48;41.05;102107.72;4965946;28;20080;-77
2023/04/05 10:40:29;;;;;;;8.68;6.55;;;;;;;12.57;40.99;102107.25;4964753;28;20415;-75
2023/04/05 10:42:55;;;;;;;11.95;8.15;;;;;;;12.65;41.94;102115.34;4971217;28;20022;-74
2023/04/05 10:45:22;;;;;;;11.60;9.52;;;;;;;12.65;42.03;102108.44;4964456;28;20022;-74
2023/04/05 10:48:02;;;;;;;8.38;7.00;;;;;;;12.59;39.88;102105.59;4968423;28;20026;-74
2023/04/05 10:50:27;;;;;;;7.72;6.78;;;;;;;12.07;37.64;102113.66;4969979;28;20475;-75
2023/04/05 10:52:54;;;;;;;8.35;6.55;;;;;;;12.10;38.81;102108.66;4961498;28;20041;-73
2023/04/05 10:55:23;;;;;;;8.30;7.00;;;;;;;11.51;40.11;102109.34;4951848;28;20019;-75
2023/04/05 10:57:49;;;;;;;7.53;6.80;;;;;;;11.38;40.00;102107.88;4955692;28;20298;-74
2023/04/05 11:00:16;;;;;;;9.05;7.82;;;;;;;11.32;38.81;102101.47;4980193;28;20015;-74
2023/04/05 11:02:42;;;;;;;11.88;9.73;;;;;;;11.31;39.98;102090.22;4964125;28;20253;-74
2023/04/05 11:05:28;;;;;;;10.68;9.52;;;;;;;11.33;39.09;102091.19;4968711;28;20566;-74
2023/04/05 11:07:58;;;;;;;9.30;7.53;;;;;;;11.43;38.77;102084.72;4955753;28;20383;-72
2023/04/05 11:10:24;;;;;;;8.68;7.32;;;;;;;11.38;38.05;102086.22;4960149;28;20034;-74
2023/04/05 11:12:56;;;;;;;8.48;7.57;;;;;;;11.67;41.44;102084.13;4954992;28;20520;-74
2023/04/05 11:15:27;;;;;;;;;;;;;;;11.60;37.83;102084.66;4951889;28;20117;-74
2023/04/05 11:18:04;;;;;;;8.73;7.63;;;;;;;11.71;40.93;102090.38;4958083;28;19914;-74
2023/04/05 11:20:47;;;;;;;9.98;8.50;;;;;;;11.77;38.85;102078.56;4968636;28;20039;-74
2023/04/05 11:23:17;;;;;;;11.20;10.00;;;;;;;11.55;37.15;102080.97;4964657;28;20065;-74